createdAt,value
2022-10-29T00:00:54.514Z,1009.22
2022-10-29T00:01:54.613Z,1009.18
2022-10-29T00:02:54.600Z,1009.16
2022-10-29T00:03:54.480Z,1009.16
2022-10-29T00:04:57.989Z,1009.17
2022-10-29T00:05:54.478Z,1009.17
2022-10-29T00:06:54.452Z,1009.15
2022-10-29T00:07:54.654Z,1009.10
2022-10-29T00:08:54.564Z,1009.07
2022-10-29T00:09:54.417Z,1009.04
2022-10-29T00:10:54.448Z,1009.03
2022-10-29T00:11:54.393Z,1009.01
2022-10-29T00:12:54.381Z,1009.02
2022-10-29T00:13:54.375Z,1009.03
2022-10-29T00:14:54.444Z,1009.05
2022-10-29T00:15:54.397Z,1009.08
2022-10-29T00:16:54.348Z,1009.09
2022-10-29T00:17:54.697Z,1009.09
2022-10-29T00:18:54.461Z,1009.07
2022-10-29T00:19:54.362Z,1009.06
2022-10-29T00:20:54.314Z,1009.04
2022-10-29T00:21:54.300Z,1009.04
2022-10-29T00:22:54.596Z,1009.03
2022-10-29T00:23:54.268Z,1009.03
2022-10-29T00:24:54.260Z,1009.04
2022-10-29T00:25:54.259Z,1009.07
2022-10-29T00:26:54.243Z,1009.11
2022-10-29T00:27:54.229Z,1009.15
2022-10-29T00:28:54.407Z,1009.18
2022-10-29T00:29:54.212Z,1009.17
2022-10-29T00:30:54.190Z,1009.16
2022-10-29T00:31:54.281Z,1009.16
2022-10-29T00:32:54.820Z,1009.16
2022-10-29T00:33:54.180Z,1009.15
2022-10-29T00:34:54.144Z,1009.14
2022-10-29T00:35:54.190Z,1009.13
2022-10-29T00:36:54.115Z,1009.13
2022-10-29T00:37:54.317Z,1009.17
2022-10-29T00:38:54.164Z,1009.21
2022-10-29T00:39:54.193Z,1009.22
2022-10-29T00:40:54.093Z,1009.22
2022-10-29T00:41:54.080Z,1009.22
2022-10-29T00:42:54.064Z,1009.22
2022-10-29T00:43:54.065Z,1009.23
2022-10-29T00:44:54.082Z,1009.25
2022-10-29T00:45:54.759Z,1009.26
2022-10-29T00:46:54.034Z,1009.26
2022-10-29T00:47:54.333Z,1009.26
2022-10-29T00:48:54.062Z,1009.28
2022-10-29T00:49:54.021Z,1009.28
2022-10-29T00:50:53.986Z,1009.27
2022-10-29T00:51:53.976Z,1009.26
2022-10-29T00:52:53.964Z,1009.25
2022-10-29T00:53:54.482Z,1009.24
2022-10-29T00:54:53.954Z,1009.22
2022-10-29T00:55:54.377Z,1009.19
2022-10-29T00:56:54.452Z,1009.20
2022-10-29T00:57:54.543Z,1009.20
2022-10-29T00:58:53.934Z,1009.22
2022-10-29T00:59:53.894Z,1009.23
2022-10-29T01:00:53.877Z,1009.20
2022-10-29T01:01:54.107Z,1009.16
2022-10-29T01:02:54.435Z,1009.13
2022-10-29T01:03:53.845Z,1009.12
2022-10-29T01:04:53.856Z,1009.09
2022-10-29T01:05:53.838Z,1009.08
2022-10-29T01:06:53.814Z,1009.09
2022-10-29T01:07:53.811Z,1009.10
2022-10-29T01:08:53.797Z,1009.09
2022-10-29T01:09:53.810Z,1009.09
2022-10-29T01:10:53.797Z,1009.09
2022-10-29T01:11:53.766Z,1009.08
2022-10-29T01:12:54.116Z,1009.08
2022-10-29T01:13:53.754Z,1009.08
2022-10-29T01:14:54.301Z,1009.05
2022-10-29T01:15:53.725Z,1009.04
2022-10-29T01:16:53.729Z,1009.04
2022-10-29T01:17:54.078Z,1009.02
2022-10-29T01:18:53.883Z,1009.00
2022-10-29T01:19:54.097Z,1008.99
2022-10-29T01:20:53.724Z,1008.98
2022-10-29T01:21:53.667Z,1008.96
2022-10-29T01:22:53.643Z,1008.98
2022-10-29T01:23:53.644Z,1009.02
2022-10-29T01:24:53.624Z,1009.04
2022-10-29T01:25:53.676Z,1009.05
2022-10-29T01:26:53.637Z,1009.07
2022-10-29T01:27:53.929Z,1009.08
2022-10-29T01:28:53.664Z,1009.08
2022-10-29T01:29:54.078Z,1009.07
2022-10-29T01:30:53.576Z,1009.06
2022-10-29T01:31:53.770Z,1009.04
2022-10-29T01:32:53.865Z,1009.05
2022-10-29T01:33:53.560Z,1009.03
2022-10-29T01:34:53.540Z,1009.00
2022-10-29T01:35:53.557Z,1008.97
2022-10-29T01:36:53.516Z,1008.95
2022-10-29T01:37:53.554Z,1008.94
2022-10-29T01:38:53.505Z,1008.93
2022-10-29T01:39:53.479Z,1008.92
2022-10-29T01:40:53.466Z,1008.95
2022-10-29T01:41:53.492Z,1008.96
2022-10-29T01:42:54.113Z,1008.94
2022-10-29T01:43:53.553Z,1008.90
2022-10-29T01:44:53.468Z,1008.85
2022-10-29T01:45:53.439Z,1008.80
2022-10-29T01:46:53.405Z,1008.78
2022-10-29T01:47:53.759Z,1008.75
2022-10-29T01:48:53.446Z,1008.72
2022-10-29T01:49:54.136Z,1008.70
2022-10-29T01:50:53.376Z,1008.68
2022-10-29T01:51:53.366Z,1008.68
2022-10-29T01:52:53.373Z,1008.69
2022-10-29T01:53:53.397Z,1008.70
2022-10-29T01:54:53.395Z,1008.72
2022-10-29T01:55:53.369Z,1008.75
2022-10-29T01:56:53.354Z,1008.76
2022-10-29T01:57:53.746Z,1008.77
2022-10-29T01:58:53.848Z,1008.77
2022-10-29T01:59:56.136Z,1008.76
2022-10-29T02:00:53.276Z,1008.74
2022-10-29T02:01:53.378Z,1008.73
2022-10-29T02:02:53.279Z,1008.71
2022-10-29T02:03:53.301Z,1008.70
2022-10-29T02:04:53.255Z,1008.68
2022-10-29T02:05:53.234Z,1008.67
2022-10-29T02:06:53.257Z,1008.66
2022-10-29T02:07:53.202Z,1008.65
2022-10-29T02:08:53.288Z,1008.64
2022-10-29T02:09:53.195Z,1008.62
2022-10-29T02:10:53.189Z,1008.60
2022-10-29T02:11:53.149Z,1008.60
2022-10-29T02:12:53.446Z,1008.62
2022-10-29T02:13:53.127Z,1008.62
2022-10-29T02:14:53.153Z,1008.60
2022-10-29T02:15:53.155Z,1008.58
2022-10-29T02:16:53.082Z,1008.56
2022-10-29T02:17:53.443Z,1008.54
2022-10-29T02:18:53.071Z,1008.53
2022-10-29T02:19:53.050Z,1008.51
2022-10-29T02:20:53.043Z,1008.50
2022-10-29T02:21:53.081Z,1008.48
2022-10-29T02:22:53.036Z,1008.47
2022-10-29T02:23:53.035Z,1008.45
2022-10-29T02:24:52.998Z,1008.46
2022-10-29T02:25:53.075Z,1008.51
2022-10-29T02:26:53.008Z,1008.54
2022-10-29T02:27:53.300Z,1008.56
2022-10-29T02:28:52.988Z,1008.56
2022-10-29T02:29:52.962Z,1008.54
2022-10-29T02:30:52.951Z,1008.53
2022-10-29T02:31:52.932Z,1008.52
2022-10-29T02:32:53.121Z,1008.51
2022-10-29T02:33:52.917Z,1008.49
2022-10-29T02:34:52.903Z,1008.47
2022-10-29T02:35:52.910Z,1008.45
2022-10-29T02:36:52.878Z,1008.43
2022-10-29T02:37:52.928Z,1008.38
2022-10-29T02:38:52.944Z,1008.35
2022-10-29T02:39:52.851Z,1008.31
2022-10-29T02:40:52.868Z,1008.30
2022-10-29T02:41:52.839Z,1008.31
2022-10-29T02:42:53.085Z,1008.32
2022-10-29T02:43:52.853Z,1008.32
2022-10-29T02:44:52.787Z,1008.30
2022-10-29T02:45:52.799Z,1008.29
2022-10-29T02:46:52.776Z,1008.28
2022-10-29T02:47:52.988Z,1008.27
2022-10-29T02:48:52.772Z,1008.26
2022-10-29T02:49:52.758Z,1008.25
2022-10-29T02:50:52.743Z,1008.24
2022-10-29T02:51:52.744Z,1008.24
2022-10-29T02:52:52.711Z,1008.22
2022-10-29T02:53:52.743Z,1008.20
2022-10-29T02:54:52.709Z,1008.19
2022-10-29T02:55:52.687Z,1008.17
2022-10-29T02:56:52.680Z,1008.17
2022-10-29T02:57:52.909Z,1008.15
2022-10-29T02:58:52.671Z,1008.14
2022-10-29T02:59:52.653Z,1008.14
2022-10-29T03:00:52.663Z,1008.14
2022-10-29T03:01:52.791Z,1008.13
2022-10-29T03:02:52.821Z,1008.11
2022-10-29T03:03:52.652Z,1008.13
2022-10-29T03:04:52.605Z,1008.16
2022-10-29T03:05:52.599Z,1008.19
2022-10-29T03:06:52.579Z,1008.19
2022-10-29T03:07:52.574Z,1008.21
2022-10-29T03:08:52.545Z,1008.21
2022-10-29T03:09:52.573Z,1008.19
2022-10-29T03:10:52.537Z,1008.18
2022-10-29T03:11:52.527Z,1008.17
2022-10-29T03:12:52.548Z,1008.16
2022-10-29T03:13:52.503Z,1008.15
2022-10-29T03:14:52.513Z,1008.14
2022-10-29T03:15:52.486Z,1008.13
2022-10-29T03:16:52.464Z,1008.12
2022-10-29T03:17:52.692Z,1008.14
2022-10-29T03:18:52.454Z,1008.17
2022-10-29T03:19:52.440Z,1008.19
2022-10-29T03:20:52.440Z,1008.20
2022-10-29T03:21:52.421Z,1008.19
2022-10-29T03:22:52.400Z,1008.17
2022-10-29T03:23:52.404Z,1008.16
2022-10-29T03:24:52.397Z,1008.15
2022-10-29T03:25:55.610Z,1008.16
2022-10-29T03:26:52.380Z,1008.18
2022-10-29T03:27:52.372Z,1008.17
2022-10-29T03:28:52.370Z,1008.18
2022-10-29T03:29:52.395Z,1008.18
2022-10-29T03:30:52.358Z,1008.17
2022-10-29T03:31:52.338Z,1008.17
2022-10-29T03:32:52.453Z,1008.16
2022-10-29T03:33:52.323Z,1008.16
2022-10-29T03:34:56.050Z,1008.15
2022-10-29T03:35:52.362Z,1008.14
2022-10-29T03:36:52.307Z,1008.12
2022-10-29T03:37:52.249Z,1008.10
2022-10-29T03:38:52.261Z,1008.07
2022-10-29T03:39:52.439Z,1008.04
2022-10-29T03:40:52.253Z,1008.02
2022-10-29T03:41:52.227Z,1007.99
2022-10-29T03:42:52.240Z,1007.98
2022-10-29T03:43:52.280Z,1007.97
2022-10-29T03:44:52.211Z,1007.96
2022-10-29T03:45:52.198Z,1007.96
2022-10-29T03:46:52.175Z,1007.95
2022-10-29T03:47:52.361Z,1007.93
2022-10-29T03:48:52.182Z,1007.91
2022-10-29T03:49:52.128Z,1007.90
2022-10-29T03:50:52.160Z,1007.89
2022-10-29T03:51:52.115Z,1007.87
2022-10-29T03:52:52.133Z,1007.87
2022-10-29T03:53:52.134Z,1007.88
2022-10-29T03:54:52.187Z,1007.90
2022-10-29T03:55:52.078Z,1007.91
2022-10-29T03:56:52.124Z,1007.89
2022-10-29T03:57:52.065Z,1007.87
2022-10-29T03:58:52.165Z,1007.86
2022-10-29T03:59:52.756Z,1007.86
2022-10-29T04:00:52.056Z,1007.84
2022-10-29T04:01:52.151Z,1007.82
2022-10-29T04:02:52.073Z,1007.82
2022-10-29T04:03:52.008Z,1007.81
2022-10-29T04:04:52.027Z,1007.81
2022-10-29T04:05:51.972Z,1007.82
2022-10-29T04:06:52.077Z,1007.85
2022-10-29T04:07:51.983Z,1007.87
2022-10-29T04:08:51.950Z,1007.91
2022-10-29T04:09:51.907Z,1007.93
2022-10-29T04:10:51.932Z,1007.95
2022-10-29T04:11:51.931Z,1007.97
2022-10-29T04:12:51.915Z,1007.99
2022-10-29T04:13:51.893Z,1008.00
2022-10-29T04:15:51.861Z,1008.00
2022-10-29T04:16:51.866Z,1008.01
2022-10-29T04:17:51.856Z,1008.01
2022-10-29T04:18:51.816Z,1008.03
2022-10-29T04:19:51.843Z,1008.04
2022-10-29T04:24:48.721Z,1008.08
2022-10-29T04:28:41.890Z,1008.07
2022-10-29T04:28:48.822Z,1008.08
2022-10-29T04:29:48.796Z,1008.09
2022-10-29T04:30:48.837Z,1008.08
2022-10-29T04:31:48.776Z,1008.06
2022-10-29T04:32:48.778Z,1008.06
2022-10-29T04:33:48.787Z,1008.07
2022-10-29T04:34:48.737Z,1008.08
2022-10-29T04:35:48.774Z,1008.09
2022-10-29T04:36:48.723Z,1008.08
2022-10-29T04:37:48.713Z,1008.07
2022-10-29T04:38:48.706Z,1008.06
2022-10-29T04:39:48.692Z,1008.05
2022-10-29T04:40:48.679Z,1008.05
2022-10-29T04:41:48.730Z,1008.06
2022-10-29T04:42:48.671Z,1008.08
2022-10-29T04:43:48.701Z,1008.11
2022-10-29T04:44:48.638Z,1008.13
2022-10-29T04:45:48.777Z,1008.13
2022-10-29T04:46:48.626Z,1008.12
2022-10-29T04:47:48.615Z,1008.11
2022-10-29T04:48:48.675Z,1008.09
2022-10-29T04:49:48.595Z,1008.08
2022-10-29T04:50:48.614Z,1008.08
2022-10-29T04:51:48.590Z,1008.08
2022-10-29T04:52:48.591Z,1008.09
2022-10-29T04:53:48.576Z,1008.10
2022-10-29T04:54:48.566Z,1008.08
2022-10-29T04:55:48.537Z,1008.08
2022-10-29T04:56:48.526Z,1008.07
2022-10-29T04:57:48.504Z,1008.06
2022-10-29T04:58:48.543Z,1008.04
2022-10-29T04:59:48.487Z,1008.02
2022-10-29T05:00:48.555Z,1008.02
2022-10-29T05:01:48.732Z,1008.01
2022-10-29T05:02:48.447Z,1007.97
2022-10-29T05:03:48.452Z,1007.93
2022-10-29T05:04:48.623Z,1007.90
2022-10-29T05:05:48.418Z,1007.88
2022-10-29T05:06:48.405Z,1007.86
2022-10-29T05:07:48.401Z,1007.84
2022-10-29T05:08:48.395Z,1007.82
2022-10-29T05:09:48.430Z,1007.82
2022-10-29T05:10:48.372Z,1007.85
2022-10-29T05:11:48.375Z,1007.89
2022-10-29T05:12:48.343Z,1007.92
2022-10-29T05:13:48.367Z,1007.93
2022-10-29T05:14:48.319Z,1007.91
2022-10-29T05:15:52.831Z,1007.85
2022-10-29T05:16:48.300Z,1007.79
2022-10-29T05:17:48.294Z,1007.73
2022-10-29T05:18:48.274Z,1007.69
2022-10-29T05:19:48.295Z,1007.67
2022-10-29T05:20:48.292Z,1007.66
2022-10-29T05:21:48.257Z,1007.64
2022-10-29T05:22:48.245Z,1007.64
2022-10-29T05:23:48.231Z,1007.63
2022-10-29T05:24:48.259Z,1007.63
2022-10-29T05:25:48.259Z,1007.64
2022-10-29T05:26:48.216Z,1007.65
2022-10-29T05:27:48.222Z,1007.66
2022-10-29T05:28:48.170Z,1007.67
2022-10-29T05:29:48.164Z,1007.69
2022-10-29T05:30:48.171Z,1007.71
2022-10-29T05:31:48.331Z,1007.73
2022-10-29T05:32:48.143Z,1007.73
2022-10-29T05:33:49.990Z,1007.72
2022-10-29T05:34:48.115Z,1007.72
2022-10-29T05:35:48.114Z,1007.73
2022-10-29T05:36:48.092Z,1007.74
2022-10-29T05:37:48.067Z,1007.73
2022-10-29T05:38:48.116Z,1007.72
2022-10-29T05:39:48.120Z,1007.71
2022-10-29T05:40:48.085Z,1007.69
2022-10-29T05:41:48.085Z,1007.68
2022-10-29T05:42:48.054Z,1007.66
2022-10-29T05:43:48.017Z,1007.63
2022-10-29T05:44:47.998Z,1007.59
2022-10-29T05:45:47.997Z,1007.56
2022-10-29T05:46:47.969Z,1007.52
2022-10-29T05:47:48.005Z,1007.47
2022-10-29T05:48:47.959Z,1007.45
2022-10-29T05:49:47.947Z,1007.44
2022-10-29T05:50:47.937Z,1007.45
2022-10-29T05:51:48.003Z,1007.46
2022-10-29T05:52:47.991Z,1007.43
2022-10-29T05:53:47.869Z,1007.40
2022-10-29T05:55:41.312Z,1007.41
2022-10-29T05:56:42.470Z,1007.45
2022-10-29T05:57:42.422Z,1007.50
2022-10-29T05:58:42.525Z,1007.53
2022-10-29T05:59:42.366Z,1007.52
2022-10-29T06:00:42.416Z,1007.51
2022-10-29T06:01:42.370Z,1007.53
2022-10-29T06:02:42.363Z,1007.57
2022-10-29T06:03:42.318Z,1007.63
2022-10-29T06:04:42.435Z,1007.70
2022-10-29T06:05:42.321Z,1007.75
2022-10-29T06:06:42.300Z,1007.77
2022-10-29T06:07:43.356Z,1007.74
2022-10-29T06:08:42.268Z,1007.71
2022-10-29T06:09:42.230Z,1007.68
2022-10-29T06:10:42.251Z,1007.68
2022-10-29T06:11:42.145Z,1007.68
2022-10-29T06:12:42.219Z,1007.69
2022-10-29T06:13:42.162Z,1007.69
2022-10-29T06:14:42.212Z,1007.69
2022-10-29T06:15:42.182Z,1007.68
2022-10-29T06:16:42.172Z,1007.67
2022-10-29T06:17:42.416Z,1007.66
2022-10-29T06:18:42.138Z,1007.64
2022-10-29T06:19:42.100Z,1007.64
2022-10-29T06:20:42.073Z,1007.66
2022-10-29T06:21:42.117Z,1007.68
2022-10-29T06:22:42.105Z,1007.68
2022-10-29T06:23:42.035Z,1007.68
2022-10-29T06:24:42.020Z,1007.67
2022-10-29T06:25:42.040Z,1007.65
2022-10-29T06:26:42.068Z,1007.65
2022-10-29T06:27:42.038Z,1007.65
2022-10-29T06:28:42.027Z,1007.64
2022-10-29T06:29:42.081Z,1007.62
2022-10-29T06:30:42.089Z,1007.59
2022-10-29T06:31:42.073Z,1007.57
2022-10-29T06:32:41.982Z,1007.56
2022-10-29T06:33:41.924Z,1007.58
2022-10-29T06:34:41.912Z,1007.58
2022-10-29T06:35:41.892Z,1007.57
2022-10-29T06:36:41.887Z,1007.56
2022-10-29T06:37:41.899Z,1007.55
2022-10-29T06:38:41.879Z,1007.55
2022-10-29T06:39:41.913Z,1007.56
2022-10-29T06:40:41.854Z,1007.58
2022-10-29T06:41:42.025Z,1007.59
2022-10-29T06:42:41.891Z,1007.59
2022-10-29T06:43:41.819Z,1007.58
2022-10-29T06:44:41.872Z,1007.54
2022-10-29T06:45:41.800Z,1007.51
2022-10-29T06:46:41.796Z,1007.49
2022-10-29T06:47:41.797Z,1007.48
2022-10-29T06:48:41.799Z,1007.48
2022-10-29T06:49:41.759Z,1007.49
2022-10-29T06:50:41.753Z,1007.53
2022-10-29T06:51:41.761Z,1007.57
2022-10-29T06:52:41.733Z,1007.61
2022-10-29T06:53:41.772Z,1007.64
2022-10-29T06:54:41.768Z,1007.65
2022-10-29T06:55:41.716Z,1007.64
2022-10-29T06:56:41.705Z,1007.64
2022-10-29T06:57:41.720Z,1007.63
2022-10-29T06:58:41.639Z,1007.63
2022-10-29T06:59:41.647Z,1007.62
2022-10-29T07:00:41.779Z,1007.62
2022-10-29T07:01:41.710Z,1007.61
2022-10-29T07:02:41.769Z,1007.60
2022-10-29T07:03:41.606Z,1007.61
2022-10-29T07:04:41.657Z,1007.62
2022-10-29T07:05:41.639Z,1007.63
2022-10-29T07:06:41.622Z,1007.63
2022-10-29T07:07:41.545Z,1007.61
2022-10-29T07:08:41.540Z,1007.58
2022-10-29T07:09:41.544Z,1007.57
2022-10-29T07:10:41.504Z,1007.56
2022-10-29T07:11:41.510Z,1007.55
2022-10-29T07:12:41.510Z,1007.56
2022-10-29T07:13:41.508Z,1007.56
2022-10-29T07:14:41.460Z,1007.55
2022-10-29T07:15:41.484Z,1007.55
2022-10-29T07:16:41.470Z,1007.54
2022-10-29T07:17:41.437Z,1007.55
2022-10-29T07:18:41.436Z,1007.55
2022-10-29T07:19:41.427Z,1007.56
2022-10-29T07:20:41.423Z,1007.56
2022-10-29T07:21:41.442Z,1007.56
2022-10-29T07:22:41.372Z,1007.54
2022-10-29T07:23:41.391Z,1007.53
2022-10-29T07:24:41.380Z,1007.53
2022-10-29T07:25:41.383Z,1007.53
2022-10-29T07:26:41.369Z,1007.54
2022-10-29T07:27:41.465Z,1007.55
2022-10-29T07:28:41.317Z,1007.56
2022-10-29T07:29:41.356Z,1007.55
2022-10-29T07:30:41.344Z,1007.53
2022-10-29T07:31:41.311Z,1007.52
2022-10-29T07:32:41.263Z,1007.54
2022-10-29T07:33:41.269Z,1007.56
2022-10-29T07:34:41.313Z,1007.57
2022-10-29T07:35:41.239Z,1007.57
2022-10-29T07:36:41.237Z,1007.56
2022-10-29T07:37:41.216Z,1007.56
2022-10-29T07:38:41.221Z,1007.59
2022-10-29T07:39:41.236Z,1007.61
2022-10-29T07:40:41.180Z,1007.64
2022-10-29T07:41:41.198Z,1007.65
2022-10-29T07:42:42.085Z,1007.64
2022-10-29T07:43:41.180Z,1007.62
2022-10-29T07:44:41.158Z,1007.62
2022-10-29T07:45:41.170Z,1007.63
2022-10-29T07:46:41.124Z,1007.64
2022-10-29T07:47:41.115Z,1007.65
2022-10-29T07:48:41.142Z,1007.67
2022-10-29T07:49:41.099Z,1007.68
2022-10-29T07:50:41.147Z,1007.69
2022-10-29T07:51:41.247Z,1007.71
2022-10-29T07:52:43.289Z,1007.72
2022-10-29T07:53:41.045Z,1007.72
2022-10-29T07:54:41.036Z,1007.70
2022-10-29T07:55:41.064Z,1007.67
2022-10-29T07:56:43.722Z,1007.65
2022-10-29T07:57:41.009Z,1007.63
2022-10-29T07:58:41.010Z,1007.65
2022-10-29T07:59:40.994Z,1007.70
2022-10-29T08:00:41.188Z,1007.75
2022-10-29T08:01:41.210Z,1007.78
2022-10-29T08:02:40.941Z,1007.81
2022-10-29T08:03:40.954Z,1007.81
2022-10-29T08:04:40.974Z,1007.82
2022-10-29T08:05:42.800Z,1007.81
2022-10-29T08:06:40.911Z,1007.79
2022-10-29T08:07:40.955Z,1007.76
2022-10-29T08:08:40.918Z,1007.71
2022-10-29T08:09:40.912Z,1007.68
2022-10-29T08:10:40.895Z,1007.66
2022-10-29T08:11:40.885Z,1007.68
2022-10-29T08:12:40.904Z,1007.71
2022-10-29T08:13:40.871Z,1007.74
2022-10-29T08:14:40.960Z,1007.75
2022-10-29T08:15:40.933Z,1007.77
2022-10-29T08:16:40.844Z,1007.78
2022-10-29T08:17:40.847Z,1007.78
2022-10-29T08:18:41.013Z,1007.77
2022-10-29T08:19:40.791Z,1007.77
2022-10-29T08:20:40.824Z,1007.76
2022-10-29T08:21:41.577Z,1007.75
2022-10-29T08:22:40.796Z,1007.76
2022-10-29T08:23:40.763Z,1007.78
2022-10-29T08:24:40.720Z,1007.78
2022-10-29T08:25:40.745Z,1007.78
2022-10-29T08:26:40.694Z,1007.76
2022-10-29T08:27:40.757Z,1007.76
2022-10-29T08:28:40.678Z,1007.77
2022-10-29T08:29:40.682Z,1007.79
2022-10-29T08:30:40.673Z,1007.80
2022-10-29T08:31:40.651Z,1007.82
2022-10-29T08:32:40.661Z,1007.81
2022-10-29T08:33:40.639Z,1007.78
2022-10-29T08:34:40.603Z,1007.75
2022-10-29T08:35:40.719Z,1007.72
2022-10-29T08:36:40.606Z,1007.70
2022-10-29T08:37:40.620Z,1007.65
2022-10-29T08:38:40.605Z,1007.62
2022-10-29T08:39:40.609Z,1007.63
2022-10-29T08:40:40.645Z,1007.64
2022-10-29T08:41:40.571Z,1007.65
2022-10-29T08:42:40.523Z,1007.64
2022-10-29T08:43:46.129Z,1007.63
2022-10-29T08:44:40.656Z,1007.62
2022-10-29T08:45:40.557Z,1007.62
2022-10-29T08:46:40.511Z,1007.62
2022-10-29T08:47:40.517Z,1007.61
2022-10-29T08:48:40.588Z,1007.62
2022-10-29T08:49:40.567Z,1007.63
2022-10-29T08:50:40.440Z,1007.62
2022-10-29T08:51:40.459Z,1007.62
2022-10-29T08:52:48.317Z,1007.61
2022-10-29T08:53:40.426Z,1007.61
2022-10-29T08:54:40.410Z,1007.62
2022-10-29T08:55:40.409Z,1007.62
2022-10-29T08:56:40.621Z,1007.59
2022-10-29T08:57:40.395Z,1007.56
2022-10-29T08:58:40.366Z,1007.55
2022-10-29T08:59:40.389Z,1007.54
2022-10-29T09:00:40.444Z,1007.53
2022-10-29T09:01:40.556Z,1007.52
2022-10-29T09:02:40.365Z,1007.51
2022-10-29T09:03:40.314Z,1007.50
2022-10-29T09:04:40.452Z,1007.52
2022-10-29T09:05:40.297Z,1007.52
2022-10-29T09:06:40.278Z,1007.57
2022-10-29T09:07:40.375Z,1007.61
2022-10-29T09:08:40.285Z,1007.66
2022-10-29T09:09:40.242Z,1007.65
2022-10-29T09:10:40.241Z,1007.65
2022-10-29T09:11:40.257Z,1007.62
2022-10-29T09:12:40.207Z,1007.59
2022-10-29T09:13:40.310Z,1007.58
2022-10-29T09:14:40.228Z,1007.60
2022-10-29T09:15:40.225Z,1007.61
2022-10-29T09:17:40.139Z,1007.58
2022-10-29T09:18:40.253Z,1007.58
2022-10-29T09:19:40.171Z,1007.56
2022-10-29T09:20:40.280Z,1007.53
2022-10-29T09:21:40.131Z,1007.51
2022-10-29T09:22:40.158Z,1007.47
2022-10-29T09:23:40.115Z,1007.47
2022-10-29T09:24:40.075Z,1007.47
2022-10-29T09:25:40.056Z,1007.46
2022-10-29T09:26:40.108Z,1007.46
2022-10-29T09:27:40.123Z,1007.46
2022-10-29T09:28:40.137Z,1007.46
2022-10-29T09:29:40.051Z,1007.43
2022-10-29T09:30:40.045Z,1007.42
2022-10-29T09:31:40.149Z,1007.39
2022-10-29T09:32:40.083Z,1007.35
2022-10-29T09:33:39.981Z,1007.30
2022-10-29T09:34:39.965Z,1007.28
2022-10-29T09:35:39.962Z,1007.29
2022-10-29T09:36:39.941Z,1007.32
2022-10-29T09:37:39.963Z,1007.32
2022-10-29T09:38:39.903Z,1007.32
2022-10-29T09:39:39.993Z,1007.29
2022-10-29T09:40:39.930Z,1007.22
2022-10-29T09:41:39.889Z,1007.16
2022-10-29T09:42:40.252Z,1007.10
2022-10-29T09:43:39.875Z,1007.07
2022-10-29T09:44:39.865Z,1007.08
2022-10-29T09:45:39.880Z,1007.10
2022-10-29T09:46:39.857Z,1007.12
2022-10-29T09:47:39.893Z,1007.12
2022-10-29T09:48:39.844Z,1007.15
2022-10-29T09:49:39.847Z,1007.17
2022-10-29T09:50:39.798Z,1007.19
2022-10-29T09:51:39.808Z,1007.20
2022-10-29T09:52:39.794Z,1007.18
2022-10-29T09:53:39.806Z,1007.17
2022-10-29T09:54:39.805Z,1007.17
2022-10-29T09:55:39.895Z,1007.21
2022-10-29T09:56:39.724Z,1007.22
2022-10-29T09:57:39.758Z,1007.26
2022-10-29T09:58:39.711Z,1007.28
2022-10-29T09:59:39.697Z,1007.32
2022-10-29T10:00:39.733Z,1007.30
2022-10-29T10:01:39.825Z,1007.30
2022-10-29T10:02:39.744Z,1007.28
2022-10-29T10:03:39.671Z,1007.24
2022-10-29T10:04:39.669Z,1007.18
2022-10-29T10:05:39.630Z,1007.15
2022-10-29T10:06:41.452Z,1007.11
2022-10-29T10:07:39.715Z,1007.09
2022-10-29T10:08:39.641Z,1007.08
2022-10-29T10:09:39.623Z,1007.10
2022-10-29T10:10:39.584Z,1007.12
2022-10-29T10:11:39.577Z,1007.12
2022-10-29T10:12:39.621Z,1007.11
2022-10-29T10:13:39.541Z,1007.10
2022-10-29T10:14:39.527Z,1007.06
2022-10-29T10:15:39.532Z,1007.02
2022-10-29T10:16:39.533Z,1006.99
2022-10-29T10:17:39.531Z,1006.99
2022-10-29T10:18:39.652Z,1006.99
2022-10-29T10:19:39.518Z,1006.97
2022-10-29T10:20:39.467Z,1006.97
2022-10-29T10:21:39.459Z,1006.96
2022-10-29T10:22:39.464Z,1006.95
2022-10-29T10:23:39.763Z,1006.94
2022-10-29T10:24:39.426Z,1006.95
2022-10-29T10:25:39.523Z,1006.98
2022-10-29T10:26:39.455Z,1007.00
2022-10-29T10:27:39.418Z,1006.99
2022-10-29T10:28:39.427Z,1007.00
2022-10-29T10:29:39.433Z,1006.99
2022-10-29T10:30:39.354Z,1007.00
2022-10-29T10:31:39.390Z,1007.01
2022-10-29T10:32:40.141Z,1007.01
2022-10-29T10:33:39.360Z,1007.05
2022-10-29T10:34:39.431Z,1007.07
2022-10-29T10:35:39.326Z,1007.07
2022-10-29T10:36:39.354Z,1007.07
2022-10-29T10:37:39.350Z,1007.05
2022-10-29T10:38:39.294Z,1007.01
2022-10-29T10:39:39.366Z,1006.98
2022-10-29T10:40:39.268Z,1006.92
2022-10-29T10:41:39.564Z,1006.90
2022-10-29T10:42:39.313Z,1006.90
2022-10-29T10:43:39.227Z,1006.93
2022-10-29T10:44:39.240Z,1006.92
2022-10-29T10:45:39.234Z,1006.91
2022-10-29T10:46:39.187Z,1006.90
2022-10-29T10:47:39.214Z,1006.89
2022-10-29T10:48:39.170Z,1006.87
2022-10-29T10:49:39.200Z,1006.85
2022-10-29T10:50:39.166Z,1006.85
2022-10-29T10:51:39.192Z,1006.83
2022-10-29T10:52:39.146Z,1006.82
2022-10-29T10:53:39.115Z,1006.77
2022-10-29T10:54:39.195Z,1006.75
2022-10-29T10:55:39.135Z,1006.73
2022-10-29T10:56:39.100Z,1006.70
2022-10-29T10:57:39.125Z,1006.70
2022-10-29T10:58:39.110Z,1006.68
2022-10-29T10:59:39.119Z,1006.66
2022-10-29T11:00:40.232Z,1006.66
2022-10-29T11:01:39.331Z,1006.64
2022-10-29T11:02:39.061Z,1006.65
2022-10-29T11:03:39.040Z,1006.61
2022-10-29T11:04:39.007Z,1006.60
2022-10-29T11:05:39.008Z,1006.57
2022-10-29T11:06:39.048Z,1006.55
2022-10-29T11:07:38.980Z,1006.57
2022-10-29T11:08:39.117Z,1006.55
2022-10-29T11:09:38.972Z,1006.56
2022-10-29T11:10:38.966Z,1006.57
2022-10-29T11:11:39.021Z,1006.57
2022-10-29T11:12:39.056Z,1006.58
2022-10-29T11:13:38.960Z,1006.61
2022-10-29T11:14:38.948Z,1006.63
2022-10-29T11:15:38.985Z,1006.65
2022-10-29T11:16:38.924Z,1006.62
2022-10-29T11:17:38.935Z,1006.64
2022-10-29T11:18:38.848Z,1006.64
2022-10-29T11:19:38.841Z,1006.62
2022-10-29T11:20:38.927Z,1006.62
2022-10-29T11:21:38.869Z,1006.62
2022-10-29T11:22:38.837Z,1006.62
2022-10-29T11:23:38.813Z,1006.61
2022-10-29T11:24:38.867Z,1006.59
2022-10-29T11:25:38.763Z,1006.55
2022-10-29T11:26:38.847Z,1006.54
2022-10-29T11:27:38.769Z,1006.54
2022-10-29T11:28:38.774Z,1006.54
2022-10-29T11:29:38.728Z,1006.53
2022-10-29T11:30:38.732Z,1006.51
2022-10-29T11:31:38.708Z,1006.50
2022-10-29T11:32:38.715Z,1006.48
2022-10-29T11:33:38.696Z,1006.51
2022-10-29T11:34:38.748Z,1006.57
2022-10-29T11:35:38.714Z,1006.62
2022-10-29T11:36:38.699Z,1006.63
2022-10-29T11:37:38.654Z,1006.58
2022-10-29T11:38:38.658Z,1006.53
2022-10-29T11:39:38.632Z,1006.50
2022-10-29T11:40:38.633Z,1006.55
2022-10-29T11:41:38.653Z,1006.57
2022-10-29T11:42:38.604Z,1006.58
2022-10-29T11:43:38.584Z,1006.59
2022-10-29T11:44:38.608Z,1006.57
2022-10-29T11:45:38.578Z,1006.57
2022-10-29T11:46:38.626Z,1006.59
2022-10-29T11:47:38.564Z,1006.56
2022-10-29T11:48:38.600Z,1006.55
2022-10-29T11:49:38.586Z,1006.52
2022-10-29T11:50:38.529Z,1006.50
2022-10-29T11:51:38.525Z,1006.49
2022-10-29T11:52:38.481Z,1006.51
2022-10-29T11:53:38.485Z,1006.51
2022-10-29T11:54:38.478Z,1006.50
2022-10-29T11:55:38.458Z,1006.49
2022-10-29T11:56:38.530Z,1006.48
2022-10-29T11:57:38.452Z,1006.50
2022-10-29T11:58:40.739Z,1006.47
2022-10-29T11:59:38.447Z,1006.46
2022-10-29T12:00:38.393Z,1006.44
2022-10-29T12:01:38.417Z,1006.44
2022-10-29T12:02:38.387Z,1006.42
2022-10-29T12:03:38.430Z,1006.42
2022-10-29T12:04:38.447Z,1006.42
2022-10-29T12:05:38.381Z,1006.42
2022-10-29T12:06:38.438Z,1006.43
2022-10-29T12:07:38.371Z,1006.44
2022-10-29T12:08:38.477Z,1006.45
2022-10-29T12:09:38.500Z,1006.43
2022-10-29T12:10:38.446Z,1006.42
2022-10-29T12:11:42.954Z,1006.42
2022-10-29T12:12:38.337Z,1006.38
2022-10-29T12:13:38.281Z,1006.35
2022-10-29T12:14:38.263Z,1006.33